sensor_id;sensor_type;location;lat;lon;timestamp;temperature;humidity
68276;DHT22;55106;51.438;-0.098;2022-12-05T00:01:42;4.02;98.71
68276;DHT22;55106;51.438;-0.098;2022-12-05T00:04:10;4.02;98.71
68276;DHT22;55106;51.438;-0.098;2022-12-05T00:06:37;4.02;98.86
68276;DHT22;55106;51.438;-0.098;2022-12-05T00:09:05;4.06;98.88
68276;DHT22;55106;51.438;-0.098;2022-12-05T00:11:33;4.05;98.88
68276;DHT22;55106;51.438;-0.098;2022-12-05T00:14:00;4.03;98.49
68276;DHT22;55106;51.438;-0.098;2022-12-05T00:16:29;4.05;98.55
68276;DHT22;55106;51.438;-0.098;2022-12-05T00:18:55;4.07;98.85
68276;DHT22;55106;51.438;-0.098;2022-12-05T00:21:23;4.09;98.49
68276;DHT22;55106;51.438;-0.098;2022-12-05T00:23:50;4.10;98.67
68276;DHT22;55106;51.438;-0.098;2022-12-05T00:26:15;4.05;98.69
68276;DHT22;55106;51.438;-0.098;2022-12-05T00:28:41;4.10;98.78
68276;DHT22;55106;51.438;-0.098;2022-12-05T00:31:10;4.07;99.03
68276;DHT22;55106;51.438;-0.098;2022-12-05T00:33:36;4.03;99.30
68276;DHT22;55106;51.438;-0.098;2022-12-05T00:36:04;4.10;99.33
68276;DHT22;55106;51.438;-0.098;2022-12-05T00:38:30;4.05;99.54
68276;DHT22;55106;51.438;-0.098;2022-12-05T00:41:01;4.07;99.75
68276;DHT22;55106;51.438;-0.098;2022-12-05T00:43:27;4.10;99.21
68276;DHT22;55106;51.438;-0.098;2022-12-05T00:45:52;4.10;99.64
68276;DHT22;55106;51.438;-0.098;2022-12-05T00:48:18;4.06;99.80
68276;DHT22;55106;51.438;-0.098;2022-12-05T00:50:43;4.10;99.59
68276;DHT22;55106;51.438;-0.098;2022-12-05T00:53:08;4.09;99.44
68276;DHT22;55106;51.438;-0.098;2022-12-05T00:55:36;4.10;99.56
68276;DHT22;55106;51.438;-0.098;2022-12-05T00:58:01;4.11;99.60
68276;DHT22;55106;51.438;-0.098;2022-12-05T01:00:26;4.13;99.59
68276;DHT22;55106;51.438;-0.098;2022-12-05T01:02:52;4.14;99.60
68276;DHT22;55106;51.438;-0.098;2022-12-05T01:05:17;4.16;99.47
68276;DHT22;55106;51.438;-0.098;2022-12-05T01:07:42;4.19;99.35
68276;DHT22;55106;51.438;-0.098;2022-12-05T01:10:08;4.24;99.13
68276;DHT22;55106;51.438;-0.098;2022-12-05T01:12:33;4.23;99.26
68276;DHT22;55106;51.438;-0.098;2022-12-05T01:14:59;4.24;99.16
68276;DHT22;55106;51.438;-0.098;2022-12-05T01:17:24;4.27;99.07
68276;DHT22;55106;51.438;-0.098;2022-12-05T01:19:49;4.32;98.70
68276;DHT22;55106;51.438;-0.098;2022-12-05T01:22:15;4.33;98.86
68276;DHT22;55106;51.438;-0.098;2022-12-05T01:24:40;4.32;98.85
68276;DHT22;55106;51.438;-0.098;2022-12-05T01:27:05;4.33;98.85
68276;DHT22;55106;51.438;-0.098;2022-12-05T01:29:31;4.36;98.61
68276;DHT22;55106;51.438;-0.098;2022-12-05T01:31:56;4.40;98.67
68276;DHT22;55106;51.438;-0.098;2022-12-05T01:34:22;4.34;98.84
68276;DHT22;55106;51.438;-0.098;2022-12-05T01:36:47;4.41;98.59
68276;DHT22;55106;51.438;-0.098;2022-12-05T01:39:14;4.37;99.02
68276;DHT22;55106;51.438;-0.098;2022-12-05T01:41:42;4.41;98.77
68276;DHT22;55106;51.438;-0.098;2022-12-05T01:46:38;4.38;99.03
68276;DHT22;55106;51.438;-0.098;2022-12-05T01:49:15;4.41;99.01
68276;DHT22;55106;51.438;-0.098;2022-12-05T01:51:45;4.43;98.88
68276;DHT22;55106;51.438;-0.098;2022-12-05T01:54:11;4.44;99.02
68276;DHT22;55106;51.438;-0.098;2022-12-05T01:56:39;4.43;99.11
68276;DHT22;55106;51.438;-0.098;2022-12-05T01:59:08;4.44;98.98
68276;DHT22;55106;51.438;-0.098;2022-12-05T02:01:35;4.48;98.80
68276;DHT22;55106;51.438;-0.098;2022-12-05T02:04:01;4.51;98.78
68276;DHT22;55106;51.438;-0.098;2022-12-05T02:06:27;4.56;98.93
68276;DHT22;55106;51.438;-0.098;2022-12-05T02:08:54;4.56;98.76
68276;DHT22;55106;51.438;-0.098;2022-12-05T02:11:21;4.56;98.69
68276;DHT22;55106;51.438;-0.098;2022-12-05T02:17:33;4.56;98.71
68276;DHT22;55106;51.438;-0.098;2022-12-05T02:20:07;4.54;98.92
68276;DHT22;55106;51.438;-0.098;2022-12-05T02:30:55;4.58;98.92
68276;DHT22;55106;51.438;-0.098;2022-12-05T02:36:13;4.64;98.34
68276;DHT22;55106;51.438;-0.098;2022-12-05T02:44:00;4.75;97.64
68276;DHT22;55106;51.438;-0.098;2022-12-05T02:46:29;4.74;97.63
68276;DHT22;55106;51.438;-0.098;2022-12-05T02:48:58;4.69;98.20
68276;DHT22;55106;51.438;-0.098;2022-12-05T02:51:28;4.72;98.20
68276;DHT22;55106;51.438;-0.098;2022-12-05T02:53:56;4.71;97.88
68276;DHT22;55106;51.438;-0.098;2022-12-05T02:56:24;4.74;97.88
68276;DHT22;55106;51.438;-0.098;2022-12-05T02:58:52;4.74;97.56
68276;DHT22;55106;51.438;-0.098;2022-12-05T03:01:23;4.75;97.43
68276;DHT22;55106;51.438;-0.098;2022-12-05T03:03:50;4.74;97.61
68276;DHT22;55106;51.438;-0.098;2022-12-05T03:06:36;4.75;97.69
68276;DHT22;55106;51.438;-0.098;2022-12-05T03:09:30;4.75;97.59
68276;DHT22;55106;51.438;-0.098;2022-12-05T03:12:06;4.75;97.62
68276;DHT22;55106;51.438;-0.098;2022-12-05T03:14:37;4.75;97.61
68276;DHT22;55106;51.438;-0.098;2022-12-05T03:17:09;4.77;97.32
68276;DHT22;55106;51.438;-0.098;2022-12-05T03:22:36;4.77;97.44
68276;DHT22;55106;51.438;-0.098;2022-12-05T03:25:03;4.75;97.57
68276;DHT22;55106;51.438;-0.098;2022-12-05T03:27:37;4.78;97.53
68276;DHT22;55106;51.438;-0.098;2022-12-05T03:30:12;4.77;97.46
68276;DHT22;55106;51.438;-0.098;2022-12-05T03:32:45;4.77;97.16
68276;DHT22;55106;51.438;-0.098;2022-12-05T03:37:57;4.79;97.57
68276;DHT22;55106;51.438;-0.098;2022-12-05T03:40:31;4.77;97.62
68276;DHT22;55106;51.438;-0.098;2022-12-05T03:51:05;4.81;97.93
68276;DHT22;55106;51.438;-0.098;2022-12-05T03:53:35;4.79;97.68
68276;DHT22;55106;51.438;-0.098;2022-12-05T03:56:11;4.72;98.11
68276;DHT22;55106;51.438;-0.098;2022-12-05T03:58:46;4.77;98.05
68276;DHT22;55106;51.438;-0.098;2022-12-05T04:01:15;4.75;98.06
68276;DHT22;55106;51.438;-0.098;2022-12-05T04:04:07;4.77;98.18
68276;DHT22;55106;51.438;-0.098;2022-12-05T04:06:36;4.75;98.15
68276;DHT22;55106;51.438;-0.098;2022-12-05T04:09:11;4.77;97.82
68276;DHT22;55106;51.438;-0.098;2022-12-05T04:11:45;4.78;98.02
68276;DHT22;55106;51.438;-0.098;2022-12-05T04:14:39;4.81;97.90
68276;DHT22;55106;51.438;-0.098;2022-12-05T04:17:06;4.79;98.06
68276;DHT22;55106;51.438;-0.098;2022-12-05T04:19:46;4.79;97.88
68276;DHT22;55106;51.438;-0.098;2022-12-05T04:22:30;4.79;97.95
68276;DHT22;55106;51.438;-0.098;2022-12-05T04:24:58;4.81;97.85
68276;DHT22;55106;51.438;-0.098;2022-12-05T04:30:21;4.91;97.39
68276;DHT22;55106;51.438;-0.098;2022-12-05T04:32:59;4.93;97.24
68276;DHT22;55106;51.438;-0.098;2022-12-05T04:35:29;4.91;97.39
68276;DHT22;55106;51.438;-0.098;2022-12-05T04:38:01;4.89;97.54
68276;DHT22;55106;51.438;-0.098;2022-12-05T04:40:39;4.95;97.26
68276;DHT22;55106;51.438;-0.098;2022-12-05T04:43:07;4.98;97.24
68276;DHT22;55106;51.438;-0.098;2022-12-05T04:45:34;4.98;97.12
68276;DHT22;55106;51.438;-0.098;2022-12-05T04:48:06;5.00;96.73
68276;DHT22;55106;51.438;-0.098;2022-12-05T04:50:35;5.05;96.55
68276;DHT22;55106;51.438;-0.098;2022-12-05T04:53:02;5.06;96.81
68276;DHT22;55106;51.438;-0.098;2022-12-05T04:55:30;5.05;96.56
68276;DHT22;55106;51.438;-0.098;2022-12-05T04:58:09;5.04;96.27
68276;DHT22;55106;51.438;-0.098;2022-12-05T05:03:41;5.12;96.23
68276;DHT22;55106;51.438;-0.098;2022-12-05T05:06:10;5.11;95.80
68276;DHT22;55106;51.438;-0.098;2022-12-05T05:08:36;5.12;95.61
68276;DHT22;55106;51.438;-0.098;2022-12-05T05:11:17;5.16;95.70
68276;DHT22;55106;51.438;-0.098;2022-12-05T05:13:43;5.19;95.72
68276;DHT22;55106;51.438;-0.098;2022-12-05T05:16:13;5.15;96.03
68276;DHT22;55106;51.438;-0.098;2022-12-05T05:18:42;5.15;95.94
68276;DHT22;55106;51.438;-0.098;2022-12-05T05:21:14;5.20;95.95
68276;DHT22;55106;51.438;-0.098;2022-12-05T05:23:40;5.19;96.06
68276;DHT22;55106;51.438;-0.098;2022-12-05T05:26:05;5.19;95.75
68276;DHT22;55106;51.438;-0.098;2022-12-05T05:28:30;5.25;95.54
68276;DHT22;55106;51.438;-0.098;2022-12-05T05:31:01;5.19;95.92
68276;DHT22;55106;51.438;-0.098;2022-12-05T05:33:27;5.19;96.28
68276;DHT22;55106;51.438;-0.098;2022-12-05T05:35:52;5.15;96.36
68276;DHT22;55106;51.438;-0.098;2022-12-05T05:38:18;5.16;96.44
68276;DHT22;55106;51.438;-0.098;2022-12-05T05:40:43;5.19;96.09
68276;DHT22;55106;51.438;-0.098;2022-12-05T05:43:08;5.18;96.08
68276;DHT22;55106;51.438;-0.098;2022-12-05T05:45:35;5.18;96.45
68276;DHT22;55106;51.438;-0.098;2022-12-05T05:48:01;5.15;96.75
68276;DHT22;55106;51.438;-0.098;2022-12-05T05:50:26;5.15;96.77
68276;DHT22;55106;51.438;-0.098;2022-12-05T05:52:52;5.11;97.14
68276;DHT22;55106;51.438;-0.098;2022-12-05T05:55:17;5.12;97.16
68276;DHT22;55106;51.438;-0.098;2022-12-05T05:57:43;5.13;96.76
68276;DHT22;55106;51.438;-0.098;2022-12-05T06:00:09;5.11;96.96
68276;DHT22;55106;51.438;-0.098;2022-12-05T06:02:35;5.16;97.16
68276;DHT22;55106;51.438;-0.098;2022-12-05T06:05:01;5.12;97.08
68276;DHT22;55106;51.438;-0.098;2022-12-05T06:07:27;5.13;97.00
68276;DHT22;55106;51.438;-0.098;2022-12-05T06:09:52;5.18;97.09
68276;DHT22;55106;51.438;-0.098;2022-12-05T06:12:17;5.18;96.72
68276;DHT22;55106;51.438;-0.098;2022-12-05T06:14:43;5.18;96.62
68276;DHT22;55106;51.438;-0.098;2022-12-05T06:17:08;5.23;96.33
68276;DHT22;55106;51.438;-0.098;2022-12-05T06:19:34;5.23;96.58
68276;DHT22;55106;51.438;-0.098;2022-12-05T06:21:59;5.22;96.54
68276;DHT22;55106;51.438;-0.098;2022-12-05T06:24:25;5.20;96.36
68276;DHT22;55106;51.438;-0.098;2022-12-05T06:26:50;5.22;96.29
68276;DHT22;55106;51.438;-0.098;2022-12-05T06:29:16;5.25;96.31
68276;DHT22;55106;51.438;-0.098;2022-12-05T06:31:41;5.29;96.26
68276;DHT22;55106;51.438;-0.098;2022-12-05T06:34:06;5.33;95.42
68276;DHT22;55106;51.438;-0.098;2022-12-05T06:36:32;5.36;95.48
68276;DHT22;55106;51.438;-0.098;2022-12-05T06:38:58;5.42;95.19
68276;DHT22;55106;51.438;-0.098;2022-12-05T06:41:24;5.43;95.23
68276;DHT22;55106;51.438;-0.098;2022-12-05T06:43:57;5.47;94.91
68276;DHT22;55106;51.438;-0.098;2022-12-05T06:46:23;5.47;94.48
68276;DHT22;55106;51.438;-0.098;2022-12-05T06:48:56;5.48;94.98
68276;DHT22;55106;51.438;-0.098;2022-12-05T06:51:22;5.50;94.91
68276;DHT22;55106;51.438;-0.098;2022-12-05T06:53:48;5.51;94.70
68276;DHT22;55106;51.438;-0.098;2022-12-05T06:56:16;5.55;94.09
68276;DHT22;55106;51.438;-0.098;2022-12-05T06:58:47;5.61;93.74
68276;DHT22;55106;51.438;-0.098;2022-12-05T07:01:17;5.63;93.61
68276;DHT22;55106;51.438;-0.098;2022-12-05T07:04:21;5.64;93.37
68276;DHT22;55106;51.438;-0.098;2022-12-05T07:06:53;5.74;92.61
68276;DHT22;55106;51.438;-0.098;2022-12-05T07:09:23;5.75;92.55
68276;DHT22;55106;51.438;-0.098;2022-12-05T07:12:13;5.74;92.58
68276;DHT22;55106;51.438;-0.098;2022-12-05T07:14:39;5.82;92.32
68276;DHT22;55106;51.438;-0.098;2022-12-05T07:17:05;5.78;92.48
68276;DHT22;55106;51.438;-0.098;2022-12-05T07:19:30;5.81;92.20
68276;DHT22;55106;51.438;-0.098;2022-12-05T07:21:56;5.85;91.59
68276;DHT22;55106;51.438;-0.098;2022-12-05T07:24:21;5.82;92.12
68276;DHT22;55106;51.438;-0.098;2022-12-05T07:26:46;5.81;91.93
68276;DHT22;55106;51.438;-0.098;2022-12-05T07:29:12;5.81;91.71
68276;DHT22;55106;51.438;-0.098;2022-12-05T07:31:37;5.78;92.19
68276;DHT22;55106;51.438;-0.098;2022-12-05T07:34:02;5.81;91.59
68276;DHT22;55106;51.438;-0.098;2022-12-05T07:36:28;5.77;92.22
68276;DHT22;55106;51.438;-0.098;2022-12-05T07:38:55;5.81;92.00
68276;DHT22;55106;51.438;-0.098;2022-12-05T07:41:24;5.78;91.99
68276;DHT22;55106;51.438;-0.098;2022-12-05T07:43:50;5.73;92.12
68276;DHT22;55106;51.438;-0.098;2022-12-05T07:46:16;5.73;92.12
68276;DHT22;55106;51.438;-0.098;2022-12-05T07:48:42;5.65;92.28
68276;DHT22;55106;51.438;-0.098;2022-12-05T07:51:08;5.64;92.73
68276;DHT22;55106;51.438;-0.098;2022-12-05T07:53:35;5.67;92.23
68276;DHT22;55106;51.438;-0.098;2022-12-05T07:56:02;5.67;92.47
68276;DHT22;55106;51.438;-0.098;2022-12-05T07:58:29;5.73;91.92
68276;DHT22;55106;51.438;-0.098;2022-12-05T08:00:55;5.70;91.92
68276;DHT22;55106;51.438;-0.098;2022-12-05T08:03:20;5.74;92.10
68276;DHT22;55106;51.438;-0.098;2022-12-05T08:05:46;5.73;92.12
68276;DHT22;55106;51.438;-0.098;2022-12-05T08:08:11;5.73;92.14
68276;DHT22;55106;51.438;-0.098;2022-12-05T08:10:37;5.73;92.10
68276;DHT22;55106;51.438;-0.098;2022-12-05T08:13:02;5.73;92.20
68276;DHT22;55106;51.438;-0.098;2022-12-05T08:15:27;5.75;92.29
68276;DHT22;55106;51.438;-0.098;2022-12-05T08:17:53;5.75;91.96
68276;DHT22;55106;51.438;-0.098;2022-12-05T08:20:18;5.84;91.83
68276;DHT22;55106;51.438;-0.098;2022-12-05T08:22:43;5.77;92.26
68276;DHT22;55106;51.438;-0.098;2022-12-05T08:25:09;5.81;91.95
68276;DHT22;55106;51.438;-0.098;2022-12-05T08:27:35;5.78;92.36
68276;DHT22;55106;51.438;-0.098;2022-12-05T08:30:00;5.78;92.22
68276;DHT22;55106;51.438;-0.098;2022-12-05T08:32:26;5.77;92.11
68276;DHT22;55106;51.438;-0.098;2022-12-05T08:34:51;5.87;91.90
68276;DHT22;55106;51.438;-0.098;2022-12-05T08:37:17;5.90;92.02
68276;DHT22;55106;51.438;-0.098;2022-12-05T08:39:43;5.97;91.84
68276;DHT22;55106;51.438;-0.098;2022-12-05T08:42:08;6.05;91.51
68276;DHT22;55106;51.438;-0.098;2022-12-05T08:44:33;6.06;91.61
68276;DHT22;55106;51.438;-0.098;2022-12-05T08:46:59;6.15;91.28
68276;DHT22;55106;51.438;-0.098;2022-12-05T08:49:24;6.19;91.59
68276;DHT22;55106;51.438;-0.098;2022-12-05T08:51:50;6.22;91.13
68276;DHT22;55106;51.438;-0.098;2022-12-05T08:54:15;6.26;90.75
68276;DHT22;55106;51.438;-0.098;2022-12-05T08:56:41;6.29;90.84
68276;DHT22;55106;51.438;-0.098;2022-12-05T08:59:06;6.28;90.78
68276;DHT22;55106;51.438;-0.098;2022-12-05T09:01:33;6.23;91.22
68276;DHT22;55106;51.438;-0.098;2022-12-05T09:04:01;6.23;90.99
68276;DHT22;55106;51.438;-0.098;2022-12-05T09:06:29;6.26;91.41
68276;DHT22;55106;51.438;-0.098;2022-12-05T09:08:59;6.30;90.97
68276;DHT22;55106;51.438;-0.098;2022-12-05T09:11:31;6.26;91.35
68276;DHT22;55106;51.438;-0.098;2022-12-05T09:13:58;6.28;91.23
68276;DHT22;55106;51.438;-0.098;2022-12-05T09:16:26;6.29;91.54
68276;DHT22;55106;51.438;-0.098;2022-12-05T09:18:54;6.26;91.76
68276;DHT22;55106;51.438;-0.098;2022-12-05T09:21:22;6.30;91.59
68276;DHT22;55106;51.438;-0.098;2022-12-05T09:23:48;6.29;91.46
68276;DHT22;55106;51.438;-0.098;2022-12-05T09:26:16;6.29;91.70
68276;DHT22;55106;51.438;-0.098;2022-12-05T09:28:42;6.30;91.79
68276;DHT22;55106;51.438;-0.098;2022-12-05T09:31:14;6.42;91.37
68276;DHT22;55106;51.438;-0.098;2022-12-05T09:33:40;6.46;91.21
68276;DHT22;55106;51.438;-0.098;2022-12-05T09:36:11;6.42;91.07
68276;DHT22;55106;51.438;-0.098;2022-12-05T09:38:37;6.46;91.04
68276;DHT22;55106;51.438;-0.098;2022-12-05T09:55:37;6.80;90.19
68276;DHT22;55106;51.438;-0.098;2022-12-05T09:58:04;6.88;90.28
68276;DHT22;55106;51.438;-0.098;2022-12-05T10:00:36;6.84;90.23
68276;DHT22;55106;51.438;-0.098;2022-12-05T10:03:30;6.84;90.53
68276;DHT22;55106;51.438;-0.098;2022-12-05T10:06:22;6.88;89.89
68276;DHT22;55106;51.438;-0.098;2022-12-05T10:11:49;6.87;90.49
68276;DHT22;55106;51.438;-0.098;2022-12-05T10:14:27;6.91;90.42
68276;DHT22;55106;51.438;-0.098;2022-12-05T10:16:59;6.95;90.04
68276;DHT22;55106;51.438;-0.098;2022-12-05T10:19:36;6.84;90.62
68276;DHT22;55106;51.438;-0.098;2022-12-05T10:22:12;6.84;90.92
68276;DHT22;55106;51.438;-0.098;2022-12-05T10:24:51;6.85;90.57
68276;DHT22;55106;51.438;-0.098;2022-12-05T10:27:23;6.88;90.44
68276;DHT22;55106;51.438;-0.098;2022-12-05T10:29:58;6.88;91.08
68276;DHT22;55106;51.438;-0.098;2022-12-05T10:37:54;6.94;91.22
68276;DHT22;55106;51.438;-0.098;2022-12-05T10:40:22;6.97;90.62
68276;DHT22;55106;51.438;-0.098;2022-12-05T10:42:50;6.95;90.76
68276;DHT22;55106;51.438;-0.098;2022-12-05T10:45:19;6.98;90.89
68276;DHT22;55106;51.438;-0.098;2022-12-05T10:47:45;7.07;90.59
68276;DHT22;55106;51.438;-0.098;2022-12-05T10:50:32;7.14;89.92
68276;DHT22;55106;51.438;-0.098;2022-12-05T10:53:04;7.15;90.03
68276;DHT22;55106;51.438;-0.098;2022-12-05T10:55:35;7.20;90.00
68276;DHT22;55106;51.438;-0.098;2022-12-05T10:58:18;7.33;89.88
68276;DHT22;55106;51.438;-0.098;2022-12-05T11:00:52;7.39;89.28
68276;DHT22;55106;51.438;-0.098;2022-12-05T11:03:34;7.33;89.83
68276;DHT22;55106;51.438;-0.098;2022-12-05T11:06:14;7.32;89.80
68276;DHT22;55106;51.438;-0.098;2022-12-05T11:08:40;7.38;89.59
68276;DHT22;55106;51.438;-0.098;2022-12-05T11:13:57;7.47;89.00
68276;DHT22;55106;51.438;-0.098;2022-12-05T11:16:34;7.45;89.32
68276;DHT22;55106;51.438;-0.098;2022-12-05T11:19:26;7.42;88.79
68276;DHT22;55106;51.438;-0.098;2022-12-05T11:21:52;7.42;88.66
68276;DHT22;55106;51.438;-0.098;2022-12-05T11:24:42;7.46;88.33
68276;DHT22;55106;51.438;-0.098;2022-12-05T11:29:42;7.43;89.06
68276;DHT22;55106;51.438;-0.098;2022-12-05T11:32:20;7.43;89.07
68276;DHT22;55106;51.438;-0.098;2022-12-05T11:37:51;7.56;88.95
68276;DHT22;55106;51.438;-0.098;2022-12-05T11:40:29;7.69;88.56
68276;DHT22;55106;51.438;-0.098;2022-12-05T11:46:00;7.55;89.10
68276;DHT22;55106;51.438;-0.098;2022-12-05T11:48:33;7.62;89.63
68276;DHT22;55106;51.438;-0.098;2022-12-05T11:53:45;7.65;89.50
68276;DHT22;55106;51.438;-0.098;2022-12-05T11:56:47;7.66;89.51
68276;DHT22;55106;51.438;-0.098;2022-12-05T12:01:57;7.71;89.69
68276;DHT22;55106;51.438;-0.098;2022-12-05T12:07:43;7.78;89.33
68276;DHT22;55106;51.438;-0.098;2022-12-05T12:10:20;7.81;89.38
68276;DHT22;55106;51.438;-0.098;2022-12-05T12:30:06;8.12;88.68
68276;DHT22;55106;51.438;-0.098;2022-12-05T12:51:12;8.28;87.89
68276;DHT22;55106;51.438;-0.098;2022-12-05T12:53:54;8.21;88.44
68276;DHT22;55106;51.438;-0.098;2022-12-05T13:01:54;8.09;88.56
68276;DHT22;55106;51.438;-0.098;2022-12-05T13:07:24;7.86;90.58
68276;DHT22;55106;51.438;-0.098;2022-12-05T13:09:56;7.76;91.63
68276;DHT22;55106;51.438;-0.098;2022-12-05T13:12:33;7.78;91.93
68276;DHT22;55106;51.438;-0.098;2022-12-05T13:15:37;7.78;91.62
68276;DHT22;55106;51.438;-0.098;2022-12-05T13:18:06;7.74;91.12
68276;DHT22;55106;51.438;-0.098;2022-12-05T13:20:38;7.71;90.87
68276;DHT22;55106;51.438;-0.098;2022-12-05T13:23:04;7.70;91.44
68276;DHT22;55106;51.438;-0.098;2022-12-05T13:25:34;7.73;90.84
68276;DHT22;55106;51.438;-0.098;2022-12-05T13:28:02;7.70;90.89
68276;DHT22;55106;51.438;-0.098;2022-12-05T13:30:29;7.74;90.43
68276;DHT22;55106;51.438;-0.098;2022-12-05T13:33:01;7.84;90.28
68276;DHT22;55106;51.438;-0.098;2022-12-05T13:35:38;7.91;90.30
68276;DHT22;55106;51.438;-0.098;2022-12-05T13:38:31;8.01;89.55
68276;DHT22;55106;51.438;-0.098;2022-12-05T13:41:17;8.14;89.03
68276;DHT22;55106;51.438;-0.098;2022-12-05T13:44:02;8.20;88.77
68276;DHT22;55106;51.438;-0.098;2022-12-05T13:46:38;8.31;88.32
68276;DHT22;55106;51.438;-0.098;2022-12-05T13:49:22;8.21;87.99
68276;DHT22;55106;51.438;-0.098;2022-12-05T13:51:49;8.14;87.70
68276;DHT22;55106;51.438;-0.098;2022-12-05T13:54:18;8.14;87.87
68276;DHT22;55106;51.438;-0.098;2022-12-05T13:56:49;8.22;87.73
68276;DHT22;55106;51.438;-0.098;2022-12-05T14:07:43;8.05;88.56
68276;DHT22;55106;51.438;-0.098;2022-12-05T14:10:14;7.98;88.75
68276;DHT22;55106;51.438;-0.098;2022-12-05T14:12:51;8.05;89.11
68276;DHT22;55106;51.438;-0.098;2022-12-05T14:15:36;8.01;89.30
68276;DHT22;55106;51.438;-0.098;2022-12-05T14:18:32;7.97;89.40
68276;DHT22;55106;51.438;-0.098;2022-12-05T14:24:01;8.02;89.45
68276;DHT22;55106;51.438;-0.098;2022-12-05T14:32:39;8.02;88.65
68276;DHT22;55106;51.438;-0.098;2022-12-05T14:35:16;8.01;89.29
68276;DHT22;55106;51.438;-0.098;2022-12-05T14:37:51;7.97;89.10
68276;DHT22;55106;51.438;-0.098;2022-12-05T14:40:39;7.93;89.53
68276;DHT22;55106;51.438;-0.098;2022-12-05T14:43:30;7.94;89.70
68276;DHT22;55106;51.438;-0.098;2022-12-05T14:50:56;7.88;90.10
68276;DHT22;55106;51.438;-0.098;2022-12-05T14:58:31;7.94;90.45
68276;DHT22;55106;51.438;-0.098;2022-12-05T15:01:22;7.94;90.34
68276;DHT22;55106;51.438;-0.098;2022-12-05T15:12:12;7.91;90.41
68276;DHT22;55106;51.438;-0.098;2022-12-05T15:14:52;7.95;89.62
68276;DHT22;55106;51.438;-0.098;2022-12-05T15:17:23;7.91;89.84
68276;DHT22;55106;51.438;-0.098;2022-12-05T15:20:15;7.93;89.46
68276;DHT22;55106;51.438;-0.098;2022-12-05T15:22:41;7.91;90.07
68276;DHT22;55106;51.438;-0.098;2022-12-05T15:25:24;7.88;90.13
68276;DHT22;55106;51.438;-0.098;2022-12-05T15:27:54;7.80;89.91
68276;DHT22;55106;51.438;-0.098;2022-12-05T15:30:20;7.81;90.10
68276;DHT22;55106;51.438;-0.098;2022-12-05T15:32:45;7.80;90.47
68276;DHT22;55106;51.438;-0.098;2022-12-05T15:35:11;7.81;90.17
68276;DHT22;55106;51.438;-0.098;2022-12-05T15:37:55;7.70;90.45
68276;DHT22;55106;51.438;-0.098;2022-12-05T15:40:22;7.70;90.33
68276;DHT22;55106;51.438;-0.098;2022-12-05T15:42:52;7.66;90.52
68276;DHT22;55106;51.438;-0.098;2022-12-05T15:45:24;7.65;90.83
68276;DHT22;55106;51.438;-0.098;2022-12-05T15:47:54;7.67;90.47
68276;DHT22;55106;51.438;-0.098;2022-12-05T15:50:45;7.67;90.99
68276;DHT22;55106;51.438;-0.098;2022-12-05T15:55:53;7.65;91.07
68276;DHT22;55106;51.438;-0.098;2022-12-05T15:58:29;7.69;91.01
68276;DHT22;55106;51.438;-0.098;2022-12-05T16:01:10;7.65;90.76
68276;DHT22;55106;51.438;-0.098;2022-12-05T16:03:45;7.60;91.05
68276;DHT22;55106;51.438;-0.098;2022-12-05T16:06:17;7.55;91.35
68276;DHT22;55106;51.438;-0.098;2022-12-05T16:08:46;7.52;91.71
68276;DHT22;55106;51.438;-0.098;2022-12-05T16:11:13;7.50;91.44
68276;DHT22;55106;51.438;-0.098;2022-12-05T16:13:49;7.55;91.15
68276;DHT22;55106;51.438;-0.098;2022-12-05T16:16:21;7.49;91.45
68276;DHT22;55106;51.438;-0.098;2022-12-05T16:19:02;7.43;91.67
68276;DHT22;55106;51.438;-0.098;2022-12-05T16:21:37;7.39;91.91
68276;DHT22;55106;51.438;-0.098;2022-12-05T16:24:30;7.40;91.73
68276;DHT22;55106;51.438;-0.098;2022-12-05T16:27:25;7.39;91.64
68276;DHT22;55106;51.438;-0.098;2022-12-05T16:32:35;7.50;91.00
68276;DHT22;55106;51.438;-0.098;2022-12-05T16:35:01;7.52;90.99
68276;DHT22;55106;51.438;-0.098;2022-12-05T16:37:29;7.50;91.10
68276;DHT22;55106;51.438;-0.098;2022-12-05T16:39:55;7.50;90.99
68276;DHT22;55106;51.438;-0.098;2022-12-05T16:42:25;7.55;90.73
68276;DHT22;55106;51.438;-0.098;2022-12-05T16:44:58;7.56;90.66
68276;DHT22;55106;51.438;-0.098;2022-12-05T16:53:00;7.52;90.77
68276;DHT22;55106;51.438;-0.098;2022-12-05T16:55:25;7.52;90.79
68276;DHT22;55106;51.438;-0.098;2022-12-05T16:57:50;7.53;90.58
68276;DHT22;55106;51.438;-0.098;2022-12-05T17:00:16;7.55;90.48
68276;DHT22;55106;51.438;-0.098;2022-12-05T17:02:42;7.52;91.02
68276;DHT22;55106;51.438;-0.098;2022-12-05T17:05:13;7.55;90.85
68276;DHT22;55106;51.438;-0.098;2022-12-05T17:07:39;7.57;91.28
68276;DHT22;55106;51.438;-0.098;2022-12-05T17:10:05;7.50;91.60
68276;DHT22;55106;51.438;-0.098;2022-12-05T17:12:31;7.43;92.77
68276;DHT22;55106;51.438;-0.098;2022-12-05T17:14:57;7.33;93.29
68276;DHT22;55106;51.438;-0.098;2022-12-05T17:17:22;7.25;93.68
68276;DHT22;55106;51.438;-0.098;2022-12-05T17:19:47;7.29;93.84
68276;DHT22;55106;51.438;-0.098;2022-12-05T17:22:13;7.26;94.03
68276;DHT22;55106;51.438;-0.098;2022-12-05T17:24:39;7.26;94.28
68276;DHT22;55106;51.438;-0.098;2022-12-05T17:27:08;7.26;94.27
68276;DHT22;55106;51.438;-0.098;2022-12-05T17:29:33;7.30;93.96
68276;DHT22;55106;51.438;-0.098;2022-12-05T17:31:59;7.33;93.65
68276;DHT22;55106;51.438;-0.098;2022-12-05T17:34:24;7.36;93.27
68276;DHT22;55106;51.438;-0.098;2022-12-05T17:36:49;7.35;93.07
68276;DHT22;55106;51.438;-0.098;2022-12-05T17:39:15;7.38;92.64
68276;DHT22;55106;51.438;-0.098;2022-12-05T17:41:40;7.38;92.71
68276;DHT22;55106;51.438;-0.098;2022-12-05T17:44:06;7.40;92.64
68276;DHT22;55106;51.438;-0.098;2022-12-05T17:46:38;7.39;92.61
68276;DHT22;55106;51.438;-0.098;2022-12-05T17:49:05;7.40;93.02
68276;DHT22;55106;51.438;-0.098;2022-12-05T17:51:30;7.38;93.11
68276;DHT22;55106;51.438;-0.098;2022-12-05T17:53:56;7.33;93.26
68276;DHT22;55106;51.438;-0.098;2022-12-05T17:56:21;7.33;93.08
68276;DHT22;55106;51.438;-0.098;2022-12-05T17:58:46;7.33;93.01
68276;DHT22;55106;51.438;-0.098;2022-12-05T18:01:14;7.35;93.44
68276;DHT22;55106;51.438;-0.098;2022-12-05T18:03:40;7.35;92.97
68276;DHT22;55106;51.438;-0.098;2022-12-05T18:06:06;7.38;93.14
68276;DHT22;55106;51.438;-0.098;2022-12-05T18:08:31;7.35;93.23
68276;DHT22;55106;51.438;-0.098;2022-12-05T18:10:58;7.35;92.97
68276;DHT22;55106;51.438;-0.098;2022-12-05T18:13:23;7.33;92.88
68276;DHT22;55106;51.438;-0.098;2022-12-05T18:15:55;7.33;92.98
68276;DHT22;55106;51.438;-0.098;2022-12-05T18:18:21;7.32;93.06
68276;DHT22;55106;51.438;-0.098;2022-12-05T18:20:47;7.30;92.93
68276;DHT22;55106;51.438;-0.098;2022-12-05T18:23:12;7.30;92.54
68276;DHT22;55106;51.438;-0.098;2022-12-05T18:25:38;7.28;92.80
68276;DHT22;55106;51.438;-0.098;2022-12-05T18:28:03;7.23;92.83
68276;DHT22;55106;51.438;-0.098;2022-12-05T18:30:29;7.22;93.28
68276;DHT22;55106;51.438;-0.098;2022-12-05T18:32:54;7.19;93.17
68276;DHT22;55106;51.438;-0.098;2022-12-05T18:35:20;7.22;93.44
68276;DHT22;55106;51.438;-0.098;2022-12-05T18:38:04;7.20;93.12
68276;DHT22;55106;51.438;-0.098;2022-12-05T18:40:30;7.15;92.95
68276;DHT22;55106;51.438;-0.098;2022-12-05T18:42:55;7.05;93.16
68276;DHT22;55106;51.438;-0.098;2022-12-05T18:45:21;6.99;93.30